Time;durP1;ratioP1;P1;durP2;ratioP2;P2;SDS_P1;SDS_P2;PMS_P1;PMS_P2;Temp;Humidity;BMP_temperature;BMP_pressure;BME280_temperature;BME280_humidity;BME280_pressure;Samples;Min_cycle;Max_cycle;Signal;HPM_P1;HPM_P2
2022/02/04 00:05:24;;;;;;;13.88;10.05;;;;;;;7.29;100.00;99327.78;5071018;28;20181;-80
2022/02/04 00:08:07;;;;;;;15.70;11.45;;;;;;;7.35;100.00;99329.31;5058884;28;20193;-79
2022/02/04 00:21:50;;;;;;;16.17;11.40;;;;;;;7.12;100.00;99324.19;5067635;28;20196;-81
2022/02/04 00:24:19;;;;;;;18.77;12.88;;;;;;;7.15;100.00;99322.25;5060505;28;20943;-80
2022/02/04 00:26:52;;;;;;;14.25;11.15;;;;;;;7.09;100.00;99322.53;5066068;28;20270;-79
2022/02/04 00:29:23;;;;;;;17.17;12.07;;;;;;;7.26;100.00;99321.72;5056546;28;20185;-81
2022/02/04 00:31:53;;;;;;;19.88;12.25;;;;;;;7.26;100.00;99316.38;5062248;28;20338;-80
2022/02/04 00:34:22;;;;;;;17.90;12.40;;;;;;;6.95;100.00;99317.84;5063358;28;20289;-80
2022/02/04 00:36:56;;;;;;;15.57;10.95;;;;;;;6.92;100.00;99322.47;5060406;28;20225;-80
2022/02/04 00:39:27;;;;;;;18.15;12.45;;;;;;;6.89;100.00;99320.81;5068416;28;20227;-80
2022/02/04 00:42:00;;;;;;;21.80;12.50;;;;;;;6.88;100.00;99325.31;5061266;28;20193;-79
2022/02/04 00:44:29;;;;;;;16.33;11.77;;;;;;;7.00;100.00;99323.84;5071137;28;20192;-79
2022/02/04 00:47:02;;;;;;;17.50;12.70;;;;;;;6.85;100.00;99325.47;5063939;28;20240;-81
2022/02/04 00:49:42;;;;;;;17.17;12.38;;;;;;;6.79;100.00;99320.38;5063523;28;20196;-82
2022/02/04 00:52:17;;;;;;;16.92;12.38;;;;;;;6.76;100.00;99331.25;5068427;28;20185;-80
2022/02/04 00:54:51;;;;;;;19.95;13.55;;;;;;;6.99;100.00;99319.44;5071571;28;20212;-81
2022/02/04 00:57:35;;;;;;;20.10;12.52;;;;;;;7.05;100.00;99318.25;5055684;28;20177;-79
2022/02/04 01:25:54;;;;;;;16.35;11.25;;;;;;;6.98;100.00;99315.00;5071591;28;20712;-80
2022/02/04 01:27:29;;;;;;;17.20;11.80;;;;;;;7.20;100.00;99324.69;5063941;28;20661;-80
2022/02/04 01:30:01;;;;;;;16.02;11.10;;;;;;;7.19;100.00;99334.56;5060418;28;20284;-80
2022/02/04 01:32:28;;;;;;;15.80;11.38;;;;;;;7.25;100.00;99336.91;5064246;28;20212;-80
2022/02/04 01:34:56;;;;;;;16.20;11.45;;;;;;;7.05;100.00;99337.00;5065123;28;20199;-81
2022/02/04 01:37:23;;;;;;;19.88;12.80;;;;;;;7.32;100.00;99324.94;5065035;28;20193;-82
2022/02/04 01:39:49;;;;;;;16.02;11.35;;;;;;;7.42;100.00;99325.38;5069451;28;20229;-80
2022/02/04 01:42:16;;;;;;;16.42;11.95;;;;;;;7.44;100.00;99312.78;5057579;28;20195;-81
2022/02/04 01:44:43;;;;;;;18.52;11.65;;;;;;;7.51;100.00;99319.56;5061665;28;20225;-81
2022/02/04 01:47:13;;;;;;;21.15;12.23;;;;;;;7.21;100.00;99329.09;5067290;28;20219;-81
2022/02/04 01:49:40;;;;;;;19.63;12.88;;;;;;;7.31;100.00;99333.09;5069088;28;20927;-81
2022/02/04 01:52:08;;;;;;;17.05;11.70;;;;;;;7.06;100.00;99341.44;5061273;28;20319;-81
2022/02/04 01:54:34;;;;;;;17.25;11.65;;;;;;;7.17;100.00;99327.50;5057642;28;20189;-81
2022/02/04 01:57:01;;;;;;;17.35;12.32;;;;;;;6.98;100.00;99330.22;5065740;28;20181;-80
2022/02/04 01:59:28;;;;;;;24.13;13.35;;;;;;;7.02;100.00;99327.31;5063378;28;20955;-80
2022/02/04 02:01:54;;;;;;;21.08;12.80;;;;;;;7.24;100.00;99337.88;5064321;28;20199;-80
2022/02/04 02:04:22;;;;;;;21.00;13.65;;;;;;;7.20;100.00;99325.56;5068631;28;20236;-80
2022/02/04 02:06:52;;;;;;;17.15;12.15;;;;;;;7.20;100.00;99314.00;5061860;28;20320;-80
2022/02/04 02:09:24;;;;;;;17.13;12.98;;;;;;;7.12;100.00;99321.50;5061681;28;20547;-80
2022/02/04 02:11:55;;;;;;;16.65;12.38;;;;;;;7.15;100.00;99321.38;5065831;28;20283;-80
2022/02/04 02:14:25;;;;;;;15.68;12.27;;;;;;;7.27;100.00;99318.97;5063118;28;20273;-79
2022/02/04 02:44:42;;;;;;;23.17;14.45;;;;;;;7.23;100.00;99303.97;5047475;28;20194;-80
2022/02/04 02:47:22;;;;;;;19.58;14.60;;;;;;;7.24;100.00;99304.88;5063260;28;20208;-81
2022/02/04 02:52:42;;;;;;;21.80;14.10;;;;;;;7.36;100.00;99295.34;5061587;28;20224;-82
2022/02/04 02:55:22;;;;;;;16.92;12.40;;;;;;;7.32;100.00;99298.16;5069338;28;20193;-80
2022/02/04 02:58:03;;;;;;;21.75;14.00;;;;;;;7.15;100.00;99292.78;5059922;28;20193;-80
2022/02/04 03:00:45;;;;;;;18.63;13.35;;;;;;;7.32;100.00;99291.94;5063714;28;20189;-81
2022/02/04 03:03:14;;;;;;;20.33;12.35;;;;;;;7.29;100.00;99290.28;5053192;28;20533;-81
2022/02/04 03:05:41;;;;;;;17.65;12.52;;;;;;;7.34;100.00;99283.84;5053260;28;20730;-81
2022/02/04 03:08:08;;;;;;;19.02;12.82;;;;;;;7.20;100.00;99292.56;5069864;28;20208;-80
2022/02/04 03:10:36;;;;;;;16.10;10.88;;;;;;;7.24;100.00;99297.69;5067993;28;20277;-80
2022/02/04 03:13:06;;;;;;;17.00;11.30;;;;;;;7.20;100.00;99301.47;5062001;28;20630;-80
2022/02/04 03:15:33;;;;;;;15.98;10.93;;;;;;;7.27;100.00;99297.53;5063780;28;20216;-80
2022/02/04 03:18:03;;;;;;;18.38;12.18;;;;;;;7.06;100.00;99307.50;5063304;28;20215;-79
2022/02/04 03:20:30;;;;;;;18.30;12.25;;;;;;;7.28;100.00;99311.78;5061858;28;20197;-79
2022/02/04 03:22:58;;;;;;;14.85;10.80;;;;;;;7.45;100.00;99310.97;5063217;28;20717;-80
2022/02/04 03:25:25;;;;;;;16.90;11.23;;;;;;;7.37;100.00;99300.66;5059172;28;20220;-80
2022/02/04 03:27:58;;;;;;;14.90;10.75;;;;;;;7.32;100.00;99300.84;5060169;28;20236;-81
2022/02/04 03:30:26;;;;;;;18.52;10.82;;;;;;;7.45;100.00;99303.78;5063014;28;20188;-81
2022/02/04 03:32:56;;;;;;;16.98;11.30;;;;;;;7.42;100.00;99297.75;5071357;28;20193;-80
2022/02/04 03:35:24;;;;;;;17.10;10.65;;;;;;;7.45;100.00;99306.47;5071530;28;20200;-81
2022/02/04 03:37:53;;;;;;;16.27;11.60;;;;;;;7.44;100.00;99306.53;5071201;28;20254;-80
2022/02/04 03:40:20;;;;;;;18.83;11.07;;;;;;;7.30;100.00;99309.91;5070106;28;20763;-80
2022/02/04 03:42:48;;;;;;;15.88;11.40;;;;;;;7.40;100.00;99299.63;5060387;28;20276;-81
2022/02/04 03:45:17;;;;;;;16.65;11.40;;;;;;;7.48;100.00;99292.03;5060346;28;20280;-80
2022/02/04 03:47:44;;;;;;;14.98;10.85;;;;;;;7.58;100.00;99287.97;5067410;28;20696;-80
2022/02/04 03:50:11;;;;;;;17.38;12.10;;;;;;;7.64;100.00;99285.00;5064712;28;20200;-81
2022/02/04 03:52:39;;;;;;;15.32;12.10;;;;;;;7.52;100.00;99289.13;5058020;28;20255;-80
2022/02/04 03:55:06;;;;;;;17.05;11.95;;;;;;;7.49;100.00;99294.66;5060267;28;20290;-80
2022/02/04 03:57:33;;;;;;;18.08;12.18;;;;;;;7.44;100.00;99291.34;5071094;28;20276;-79
2022/02/04 04:00:00;;;;;;;19.48;12.63;;;;;;;7.57;100.00;99296.94;5066113;28;20193;-81
2022/02/04 04:02:28;;;;;;;19.05;13.32;;;;;;;7.48;100.00;99300.09;5062886;28;20599;-81
2022/02/04 04:04:55;;;;;;;19.05;12.45;;;;;;;7.52;100.00;99299.00;5069370;28;20619;-80
2022/02/04 04:07:22;;;;;;;18.15;13.30;;;;;;;7.49;100.00;99304.50;5062890;28;20304;-80
2022/02/04 04:09:53;;;;;;;18.48;12.88;;;;;;;7.30;100.00;99304.53;5062753;28;20198;-81
2022/02/04 04:12:20;;;;;;;17.55;12.68;;;;;;;7.36;100.00;99303.38;5060220;28;20193;-80
2022/02/04 04:14:51;;;;;;;16.65;11.52;;;;;;;7.52;100.00;99305.22;5068906;28;20246;-80
2022/02/04 04:17:18;;;;;;;19.10;12.50;;;;;;;7.35;100.00;99307.88;5063316;28;20617;-81
2022/02/04 04:19:46;;;;;;;16.83;12.05;;;;;;;7.32;100.00;99310.69;5062759;28;20221;-80
2022/02/04 04:22:13;;;;;;;16.67;11.20;;;;;;;7.21;100.00;99307.69;5059938;28;20189;-80
2022/02/04 04:24:40;;;;;;;17.88;12.27;;;;;;;7.20;100.00;99306.81;5061457;28;20188;-80
2022/02/04 04:27:06;;;;;;;20.30;12.98;;;;;;;7.16;100.00;99310.59;5064844;28;20219;-80
2022/02/04 04:29:33;;;;;;;16.45;10.98;;;;;;;7.39;100.00;99304.09;5062180;28;20641;-80
2022/02/04 04:32:00;;;;;;;20.10;12.57;;;;;;;7.20;100.00;99314.84;5061231;28;20190;-79
2022/02/04 04:34:26;;;;;;;17.55;12.18;;;;;;;7.26;100.00;99317.25;5070031;28;20276;-81
2022/02/04 04:36:54;;;;;;;19.67;12.48;;;;;;;7.17;100.00;99322.16;5070431;28;20260;-80
2022/02/04 04:39:26;;;;;;;18.30;12.23;;;;;;;7.15;100.00;99322.25;5070780;28;20307;-80
2022/02/04 04:42:08;;;;;;;19.50;12.82;;;;;;;7.37;100.00;99323.84;5058924;28;20193;-80
2022/02/04 04:45:03;;;;;;;18.15;13.25;;;;;;;7.42;100.00;99321.84;5060572;28;20189;-79
2022/02/04 05:26:29;;;;;;;14.35;9.85;;;;;;;7.67;100.00;99297.38;5065594;28;20196;-81
2022/02/04 05:29:00;;;;;;;14.15;9.60;;;;;;;7.65;100.00;99304.59;5074122;28;20193;-81
2022/02/04 05:31:26;;;;;;;16.77;10.32;;;;;;;7.55;100.00;99306.88;5062952;28;20293;-81
2022/02/04 05:33:53;;;;;;;13.15;8.73;;;;;;;7.45;100.00;99297.56;5061740;28;20190;-81
2022/02/04 05:36:20;;;;;;;12.63;9.05;;;;;;;7.35;100.00;99304.31;5068328;28;20557;-81
2022/02/04 05:38:47;;;;;;;14.95;10.55;;;;;;;7.34;100.00;99310.63;5054693;28;20320;-81
2022/02/04 05:41:21;;;;;;;12.15;8.13;;;;;;;7.43;100.00;99302.13;5059502;28;20599;-81
2022/02/04 05:43:48;;;;;;;12.80;8.40;;;;;;;7.47;100.00;99306.41;5065997;28;20188;-81
2022/02/04 05:46:19;;;;;;;11.82;9.05;;;;;;;7.42;100.00;99303.94;5065230;28;20201;-82
2022/02/04 05:48:49;;;;;;;14.23;8.80;;;;;;;7.45;100.00;99301.09;5065901;28;20217;-81
2022/02/04 05:51:43;;;;;;;13.52;10.02;;;;;;;7.54;100.00;99294.44;5061788;28;20643;-81
2022/02/04 05:54:16;;;;;;;11.68;8.45;;;;;;;7.54;100.00;99294.44;5057573;28;20284;-81
2022/02/04 05:56:53;;;;;;;11.27;7.85;;;;;;;7.56;100.00;99299.72;5054462;28;20273;-81
2022/02/04 05:59:28;;;;;;;12.00;7.85;;;;;;;7.58;100.00;99292.47;5069517;28;20200;-81
2022/02/04 06:02:02;;;;;;;13.18;8.20;;;;;;;7.66;100.00;99293.78;5065886;28;20605;-81
2022/02/04 06:04:50;;;;;;;9.55;6.40;;;;;;;7.71;100.00;99296.22;5069461;28;20665;-80
2022/02/04 06:07:33;;;;;;;10.48;7.30;;;;;;;7.62;100.00;99300.28;5063384;28;20201;-80
2022/02/04 06:10:33;;;;;;;11.60;6.90;;;;;;;7.61;100.00;99305.69;5057800;28;20190;-80
2022/02/04 06:23:48;;;;;;;8.77;6.63;;;;;;;7.69;100.00;99312.41;5059483;28;20277;-79
2022/02/04 06:26:15;;;;;;;9.35;6.38;;;;;;;7.43;100.00;99310.16;5063844;28;20284;-80
2022/02/04 06:28:43;;;;;;;7.82;6.43;;;;;;;7.42;100.00;99309.31;5071957;28;20678;-80
2022/02/04 06:31:11;;;;;;;8.18;6.35;;;;;;;7.46;100.00;99312.69;5061674;28;20187;-81
2022/02/04 06:33:37;;;;;;;8.75;7.85;;;;;;;7.52;100.00;99304.34;5060461;28;20223;-81
2022/02/04 06:36:05;;;;;;;8.50;6.15;;;;;;;7.48;100.00;99306.34;5069532;28;20279;-80
2022/02/04 06:38:32;;;;;;;7.20;5.43;;;;;;;7.44;100.00;99302.06;5060834;28;20281;-78
2022/02/04 06:40:59;;;;;;;8.02;5.68;;;;;;;7.50;100.00;99291.03;5063456;28;20284;-80
2022/02/04 06:43:26;;;;;;;6.63;5.20;;;;;;;7.47;100.00;99303.72;5066885;28;20182;-79
2022/02/04 06:45:54;;;;;;;7.35;5.68;;;;;;;7.52;100.00;99305.22;5068654;28;20229;-80
2022/02/04 06:48:20;;;;;;;7.78;5.55;;;;;;;7.64;100.00;99298.38;5069748;28;20225;-79
2022/02/04 06:50:47;;;;;;;6.32;4.97;;;;;;;7.55;100.00;99308.69;5064765;28;20284;-80
2022/02/04 06:53:14;;;;;;;5.93;5.00;;;;;;;7.46;100.00;99315.38;5063687;28;20272;-80
2022/02/04 06:55:41;;;;;;;7.35;5.70;;;;;;;7.54;100.00;99321.22;5069374;28;20284;-80
2022/02/04 06:58:08;;;;;;;14.80;5.85;;;;;;;7.42;100.00;99321.84;5071319;28;20196;-80
2022/02/04 07:00:35;;;;;;;6.47;5.38;;;;;;;7.45;100.00;99316.31;5068513;28;20193;-77
2022/02/04 07:03:03;;;;;;;6.43;5.13;;;;;;;7.48;100.00;99317.06;5062115;28;20194;-77
2022/02/04 07:05:38;;;;;;;6.97;4.43;;;;;;;7.56;100.00;99321.16;5057366;28;20195;-78
2022/02/04 07:08:10;;;;;;;6.45;5.40;;;;;;;7.51;100.00;99332.09;5061808;28;20244;-78
2022/02/04 07:10:52;;;;;;;5.63;4.25;;;;;;;7.51;100.00;99318.69;5062858;28;20198;-79
2022/02/04 07:13:23;;;;;;;5.65;4.82;;;;;;;7.64;100.00;99324.28;5057488;28;20589;-80
2022/02/04 07:15:55;;;;;;;5.38;4.47;;;;;;;7.46;100.00;99308.22;5054345;28;20189;-80
2022/02/04 07:21:07;;;;;;;7.47;5.22;;;;;;;7.36;100.00;99330.19;5063756;28;20551;-77
2022/02/04 07:23:35;;;;;;;6.00;4.72;;;;;;;7.49;100.00;99325.94;5071325;28;20239;-78
2022/02/04 07:26:02;;;;;;;5.95;4.85;;;;;;;7.41;100.00;99322.78;5061836;28;20593;-79
2022/02/04 07:28:29;;;;;;;6.57;4.78;;;;;;;7.44;100.00;99320.81;5057347;28;20574;-79
2022/02/04 07:30:57;;;;;;;6.88;4.50;;;;;;;7.42;100.00;99321.84;5071316;28;20716;-80
2022/02/04 07:33:38;;;;;;;5.75;4.55;;;;;;;7.39;100.00;99328.19;5071289;28;20292;-78
2022/02/04 07:40:52;;;;;;;5.22;4.00;;;;;;;7.39;100.00;99327.34;5063982;28;20279;-80
2022/02/04 07:41:37;;;;;;;5.32;4.25;;;;;;;7.45;100.00;99332.41;5065917;28;20208;-80
2022/02/04 07:44:04;;;;;;;5.07;4.30;;;;;;;7.37;100.00;99326.53;5070505;28;20193;-78
2022/02/04 07:46:31;;;;;;;10.27;4.38;;;;;;;7.24;100.00;99321.78;5069998;28;20208;-80
2022/02/04 07:48:59;;;;;;;6.43;3.97;;;;;;;7.28;100.00;99323.38;5070289;28;20231;-79
2022/02/04 07:51:26;;;;;;;4.95;3.95;;;;;;;7.31;100.00;99312.50;5070972;28;20215;-78
2022/02/04 07:53:53;;;;;;;5.78;3.92;;;;;;;7.42;100.00;99319.16;5071535;28;20205;-81
2022/02/04 07:56:23;;;;;;;5.53;4.63;;;;;;;7.52;100.00;99315.06;5070475;28;20199;-81
2022/02/04 07:58:55;;;;;;;6.70;4.85;;;;;;;7.46;100.00;99305.53;5069977;28;20198;-80
2022/02/04 08:01:27;;;;;;;5.60;4.47;;;;;;;7.56;100.00;99305.94;5071457;28;20257;-80
2022/02/04 08:04:00;;;;;;;4.65;4.10;;;;;;;7.50;100.00;99311.59;5064881;28;20196;-80
2022/02/04 08:06:31;;;;;;;4.80;3.95;;;;;;;7.42;100.00;99309.31;5069578;28;20631;-81
2022/02/04 08:09:05;;;;;;;5.60;4.13;;;;;;;7.57;100.00;99317.50;5059741;28;20691;-80
2022/02/04 08:11:53;;;;;;;5.18;4.57;;;;;;;7.40;100.00;99308.50;5068470;28;20246;-80
2022/02/04 08:14:31;;;;;;;6.18;5.13;;;;;;;7.65;100.00;99309.97;5070109;28;20983;-79
2022/02/04 08:20:19;;;;;;;5.70;4.63;;;;;;;7.44;100.00;99304.75;5068299;28;20177;-79
2022/02/04 08:23:11;;;;;;;7.72;4.32;;;;;;;7.64;100.00;99303.75;5057919;28;20302;-79
2022/02/04 08:34:03;;;;;;;4.93;4.05;;;;;;;7.81;100.00;99299.34;5058113;28;20186;-80
2022/02/04 08:53:35;;;;;;;3.30;2.97;;;;;;;7.55;100.00;99303.31;5074316;28;20282;-78
2022/02/04 08:56:03;;;;;;;3.83;3.42;;;;;;;7.43;100.00;99300.31;5066142;28;20202;-78
2022/02/04 08:58:37;;;;;;;5.00;3.42;;;;;;;7.51;100.00;99308.84;5071259;28;20201;-79
2022/02/04 09:01:08;;;;;;;3.78;3.28;;;;;;;7.28;100.00;99307.31;5074033;28;20197;-79
2022/02/04 09:03:49;;;;;;;3.95;3.55;;;;;;;7.34;100.00;99311.50;5068196;28;20761;-79
2022/02/04 09:06:20;;;;;;;4.53;3.58;;;;;;;7.40;100.00;99310.34;5061865;28;20647;-79
2022/02/04 09:08:50;;;;;;;4.85;4.18;;;;;;;7.27;100.00;99304.72;5053547;28;20831;-78
2022/02/04 09:11:28;;;;;;;4.32;3.60;;;;;;;7.46;100.00;99301.97;5060811;28;20196;-78
2022/02/04 09:16:57;;;;;;;4.07;3.67;;;;;;;7.63;100.00;99301.13;5073824;28;20263;-79
2022/02/04 09:19:27;;;;;;;6.57;4.30;;;;;;;7.82;100.00;99293.00;5055410;28;20181;-79
2022/02/04 09:22:17;;;;;;;7.70;4.63;;;;;;;7.85;100.00;99295.56;5054790;28;20193;-79
2022/02/04 09:24:43;;;;;;;3.92;3.35;;;;;;;7.62;100.00;99292.25;5054604;28;20197;-78
2022/02/04 09:27:12;;;;;;;4.35;3.70;;;;;;;7.56;100.00;99287.19;5055838;28;20218;-78
2022/02/04 09:29:39;;;;;;;5.47;4.07;;;;;;;7.75;100.00;99291.59;5057103;28;20209;-78
2022/02/04 09:32:06;;;;;;;6.70;4.30;;;;;;;7.86;100.00;99289.22;5068495;28;20633;-78
2022/02/04 09:34:33;;;;;;;6.60;5.03;;;;;;;7.96;100.00;99282.47;5074956;28;20597;-78
2022/02/04 09:36:59;;;;;;;4.22;3.83;;;;;;;8.25;100.00;99282.72;5074931;28;20178;-79
2022/02/04 09:39:27;;;;;;;5.50;4.85;;;;;;;8.35;100.00;99279.44;5074482;28;20280;-79
2022/02/04 09:41:54;;;;;;;7.13;4.32;;;;;;;8.46;100.00;99276.22;5068135;28;20201;-80
2022/02/04 09:44:22;;;;;;;5.32;4.70;;;;;;;8.56;100.00;99272.06;5054956;28;20182;-80
2022/02/04 09:46:48;;;;;;;5.43;3.63;;;;;;;8.70;100.00;99265.94;5054480;28;20238;-80
2022/02/04 09:49:21;;;;;;;6.40;5.05;;;;;;;8.71;100.00;99272.19;5060871;28;20291;-80
2022/02/04 10:04:20;;;;;;;7.40;5.68;;;;;;;8.80;100.00;99268.13;5074083;28;20197;-80
2022/02/04 10:14:50;;;;;;;9.00;6.93;;;;;;;8.92;100.00;99272.81;5074322;28;20637;-80
2022/02/04 10:17:23;;;;;;;10.10;7.25;;;;;;;9.02;100.00;99273.13;5074202;28;20569;-80
2022/02/04 10:19:50;;;;;;;8.15;6.97;;;;;;;9.09;100.00;99269.13;5074157;28;20274;-81
2022/02/04 10:22:20;;;;;;;10.38;7.30;;;;;;;9.13;100.00;99268.88;5077239;28;20193;-80
2022/02/04 10:24:55;;;;;;;8.40;7.50;;;;;;;8.97;100.00;99259.97;5077154;28;20281;-81
2022/02/04 10:27:24;;;;;;;7.60;6.18;;;;;;;8.97;100.00;99270.72;5075292;28;20621;-82
2022/02/04 10:29:55;;;;;;;7.40;6.35;;;;;;;8.88;100.00;99265.88;5066419;28;20220;-82
2022/02/04 10:32:37;;;;;;;6.88;6.13;;;;;;;8.82;100.00;99264.41;5075134;28;20284;-81
2022/02/04 10:35:06;;;;;;;11.50;10.43;;;;;;;8.87;100.00;99264.16;5074622;28;20314;-80
2022/02/04 10:37:35;;;;;;;6.53;5.88;;;;;;;8.75;100.00;99254.94;5058499;28;20239;-83
2022/02/04 10:40:06;;;;;;;6.72;5.65;;;;;;;8.66;100.00;99264.41;5081753;28;20232;-82
2022/02/04 10:42:40;;;;;;;6.35;5.75;;;;;;;8.63;100.00;99255.63;5074748;28;20200;-79
2022/02/04 10:45:37;;;;;;;8.00;7.05;;;;;;;8.64;100.00;99254.66;5075025;28;20225;-82
2022/02/04 10:48:27;;;;;;;5.82;5.00;;;;;;;8.80;100.00;99244.84;5078197;28;20222;-81
2022/02/04 10:51:32;;;;;;;8.10;5.47;;;;;;;8.90;100.00;99246.03;5078025;28;20199;-81
2022/02/04 10:54:24;;;;;;;5.78;5.18;;;;;;;8.90;100.00;99240.66;5073499;28;20565;-82
2022/02/04 10:57:09;;;;;;;5.80;5.20;;;;;;;9.38;100.00;99236.09;5079405;28;20207;-83
2022/02/04 10:59:58;;;;;;;4.90;4.40;;;;;;;9.43;98.34;99229.56;5070008;28;20187;-81
2022/02/04 11:02:52;;;;;;;6.63;5.40;;;;;;;9.31;97.23;99223.97;5058466;28;20601;-78
2022/02/04 11:05:26;;;;;;;5.82;5.20;;;;;;;9.78;97.04;99219.41;5066584;28;20198;-81
2022/02/04 11:35:46;;;;;;;6.07;5.10;;;;;;;9.88;89.84;99187.41;5059879;28;20201;-81
2022/02/04 11:52:43;;;;;;;5.18;3.42;;;;;;;9.11;99.14;99186.66;5069037;28;20194;-80
2022/02/04 11:55:33;;;;;;;3.88;3.10;;;;;;;9.30;100.00;99181.09;5072260;28;20714;-80
2022/02/04 11:58:04;;;;;;;3.85;3.30;;;;;;;9.08;100.00;99171.59;5069122;28;20195;-80
2022/02/04 12:00:33;;;;;;;3.25;2.53;;;;;;;8.93;100.00;99173.38;5071846;28;20195;-80
2022/02/04 12:03:00;;;;;;;2.30;2.10;;;;;;;8.91;100.00;99166.34;5070562;28;20331;-80
2022/02/04 12:05:34;;;;;;;2.35;2.15;;;;;;;8.72;100.00;99155.81;5072391;28;20194;-80
2022/02/04 12:08:26;;;;;;;3.80;3.05;;;;;;;8.84;100.00;99141.69;5071461;28;20285;-81
2022/02/04 12:10:56;;;;;;;2.50;2.30;;;;;;;8.93;100.00;99140.25;5070519;28;20595;-79
2022/02/04 12:13:24;;;;;;;3.28;2.35;;;;;;;8.90;100.00;99135.09;5071740;28;20299;-81
2022/02/04 12:15:56;;;;;;;4.05;2.95;;;;;;;9.07;100.00;99126.06;5073882;28;20282;-81
2022/02/04 12:18:24;;;;;;;3.47;3.10;;;;;;;9.18;100.00;99137.88;5071183;28;20608;-80
2022/02/04 12:21:05;;;;;;;4.47;3.25;;;;;;;9.15;100.00;99134.50;5077524;28;20654;-82
2022/02/04 12:23:49;;;;;;;2.92;2.30;;;;;;;9.07;99.83;99131.44;5069372;28;20190;-81
2022/02/04 12:26:33;;;;;;;2.75;2.47;;;;;;;8.97;100.00;99123.88;5080335;28;20209;-82
2022/02/04 12:29:03;;;;;;;3.55;2.83;;;;;;;8.74;100.00;99119.00;5065160;28;20207;-80
2022/02/04 12:31:31;;;;;;;3.15;2.85;;;;;;;8.90;100.00;99114.47;5054298;28;20278;-82
2022/02/04 12:34:00;;;;;;;4.70;3.85;;;;;;;8.92;100.00;99107.19;5070182;28;20273;-81
2022/02/04 12:36:30;;;;;;;3.25;2.95;;;;;;;8.83;100.00;99097.00;5075663;28;20257;-80
2022/02/04 12:38:58;;;;;;;4.05;3.15;;;;;;;8.96;100.00;99087.25;5073251;28;20704;-81
2022/02/04 12:41:29;;;;;;;5.05;4.10;;;;;;;8.98;100.00;99084.50;5079319;28;20238;-81
2022/02/04 12:43:59;;;;;;;5.15;3.42;;;;;;;9.16;99.36;99080.69;5071317;28;20241;-83
2022/02/04 12:46:28;;;;;;;2.85;2.63;;;;;;;9.24;97.28;99074.00;5073097;28;20289;-83
2022/02/04 12:49:05;;;;;;;3.40;2.90;;;;;;;9.42;97.56;99072.00;5071080;28;20305;-83
2022/02/04 12:51:47;;;;;;;3.85;3.20;;;;;;;9.58;97.77;99079.00;5070762;28;20223;-80
2022/02/04 12:54:28;;;;;;;3.10;2.80;;;;;;;9.57;95.30;99071.06;5077548;28;20195;-78
2022/02/04 12:59:58;;;;;;;2.90;2.60;;;;;;;9.66;95.35;99059.72;5059005;28;20270;-80
2022/02/04 13:02:39;;;;;;;4.05;3.20;;;;;;;9.80;96.17;99054.31;5077556;28;20203;-80
2022/02/04 13:07:56;;;;;;;3.67;3.22;;;;;;;9.14;97.63;99062.94;5076184;28;20198;-81
2022/02/04 13:10:24;;;;;;;3.53;3.20;;;;;;;8.98;100.00;99065.69;5072882;28;20219;-82
2022/02/04 13:12:54;;;;;;;3.40;2.95;;;;;;;9.08;100.00;99068.69;5074342;28;20592;-81
2022/02/04 13:15:22;;;;;;;3.88;3.13;;;;;;;9.03;100.00;99058.22;5072282;28;20545;-81
2022/02/04 13:17:49;;;;;;;5.85;3.00;;;;;;;8.71;100.00;99061.00;5072702;28;20204;-80
2022/02/04 13:20:21;;;;;;;3.53;3.22;;;;;;;8.71;100.00;99055.63;5073330;28;20183;-81
2022/02/04 13:22:48;;;;;;;3.40;3.00;;;;;;;8.76;100.00;99039.25;5079500;28;20198;-82
2022/02/04 13:25:18;;;;;;;3.53;3.22;;;;;;;8.85;100.00;99036.03;5073846;28;20259;-82
2022/02/04 13:28:08;;;;;;;5.50;3.97;;;;;;;9.03;100.00;99025.13;5075422;28;20286;-84
2022/02/04 13:30:36;;;;;;;4.32;3.05;;;;;;;9.01;100.00;99022.53;5075550;28;20243;-83
2022/02/04 13:33:14;;;;;;;3.35;2.85;;;;;;;8.97;100.00;99019.16;5075279;28;20670;-84
2022/02/04 13:35:42;;;;;;;5.13;2.75;;;;;;;9.09;100.00;99022.94;5076083;28;20524;-80
2022/02/04 13:38:18;;;;;;;5.38;2.83;;;;;;;8.77;100.00;99017.72;5075881;28;20190;-82
2022/02/04 13:40:52;;;;;;;8.02;3.65;;;;;;;9.03;100.00;99017.09;5075387;28;20182;-84
2022/02/04 13:43:26;;;;;;;6.15;5.10;;;;;;;9.19;100.00;99007.97;5074274;28;20196;-83
2022/02/04 13:46:00;;;;;;;3.75;3.28;;;;;;;8.99;100.00;99013.72;5073426;28;20187;-81
2022/02/04 13:48:41;;;;;;;5.78;3.33;;;;;;;8.96;100.00;99014.75;5075354;28;20541;-83
2022/02/04 13:51:20;;;;;;;3.78;2.80;;;;;;;8.79;100.00;99009.53;5074129;28;20195;-85
2022/02/04 13:54:10;;;;;;;4.30;3.13;;;;;;;9.03;100.00;99009.03;5073755;28;20579;-82
2022/02/04 13:56:45;;;;;;;3.95;3.53;;;;;;;9.12;100.00;99003.09;5067896;28;20195;-85
2022/02/04 13:59:22;;;;;;;7.53;5.88;;;;;;;9.16;100.00;99004.63;5075617;28;20186;-82
2022/02/04 14:01:57;;;;;;;3.47;3.17;;;;;;;8.89;100.00;99000.00;5073520;28;20189;-83
2022/02/04 14:04:23;;;;;;;3.75;3.35;;;;;;;8.91;100.00;99008.81;5075140;28;20653;-83
2022/02/04 14:07:07;;;;;;;3.78;2.60;;;;;;;8.87;100.00;98987.63;5077418;28;20186;-83
2022/02/04 14:09:37;;;;;;;3.30;2.80;;;;;;;8.90;100.00;98985.59;5082585;28;20205;-79
2022/02/04 14:12:15;;;;;;;3.28;2.97;;;;;;;8.96;100.00;98977.16;5079988;28;20347;-81
2022/02/04 14:14:44;;;;;;;3.55;2.80;;;;;;;8.68;100.00;98985.16;5079727;28;20204;-81
2022/02/04 14:17:13;;;;;;;3.17;2.70;;;;;;;8.72;100.00;98984.88;5078371;28;20235;-81
2022/02/04 14:19:40;;;;;;;4.38;3.28;;;;;;;8.81;100.00;98982.63;5078235;28;20201;-81
2022/02/04 14:22:09;;;;;;;5.97;3.20;;;;;;;8.81;100.00;98993.34;5075292;28;20186;-81
2022/02/04 14:24:35;;;;;;;3.63;2.95;;;;;;;8.67;100.00;98983.44;5068035;28;20197;-81
2022/02/04 14:27:02;;;;;;;6.32;4.40;;;;;;;8.85;100.00;98985.03;5074230;28;20198;-80
2022/02/04 14:29:36;;;;;;;6.78;3.90;;;;;;;9.06;100.00;98987.34;5076483;28;20602;-79
2022/02/04 14:32:10;;;;;;;4.45;4.03;;;;;;;8.83;100.00;98968.13;5079644;28;20702;-80
2022/02/04 14:34:58;;;;;;;4.57;4.15;;;;;;;8.79;100.00;98985.38;5073476;28;20709;-81
2022/02/04 14:37:44;;;;;;;4.60;4.00;;;;;;;8.71;100.00;98982.31;5073416;28;20205;-80
2022/02/04 14:54:05;;;;;;;5.68;5.18;;;;;;;8.21;100.00;98980.75;4978741;28;20272;-80
2022/02/04 15:02:05;;;;;;;8.00;7.20;;;;;;;8.19;100.00;98974.66;5068896;28;20199;-80
2022/02/04 15:04:41;;;;;;;6.63;5.40;;;;;;;8.17;100.00;98988.13;5074532;28;20642;-81
2022/02/04 15:07:09;;;;;;;5.40;4.95;;;;;;;8.25;100.00;98985.84;5074578;28;20580;-79
2022/02/04 15:09:39;;;;;;;6.80;5.25;;;;;;;8.20;100.00;98987.09;5073502;28;20244;-81
2022/02/04 15:12:07;;;;;;;15.98;10.23;;;;;;;8.24;100.00;98994.88;5074083;28;20183;-80
2022/02/04 15:14:34;;;;;;;5.30;4.43;;;;;;;8.19;100.00;98988.06;5072502;28;20248;-81
2022/02/04 15:17:00;;;;;;;4.78;4.30;;;;;;;8.15;100.00;98979.31;5053859;28;20215;-79
2022/02/04 15:19:32;;;;;;;4.80;4.28;;;;;;;7.97;100.00;98983.91;5054249;28;20709;-83
2022/02/04 15:22:02;;;;;;;7.03;4.53;;;;;;;8.13;100.00;98979.38;5065612;28;20199;-82
2022/02/04 15:24:28;;;;;;;4.93;4.47;;;;;;;8.05;100.00;98994.19;5073918;28;20194;-80
2022/02/04 15:26:55;;;;;;;4.10;3.70;;;;;;;8.23;100.00;98997.63;5071622;28;20305;-81
2022/02/04 15:29:22;;;;;;;4.18;3.70;;;;;;;8.18;100.00;98989.00;5071000;28;20589;-81
2022/02/04 15:31:52;;;;;;;4.32;3.92;;;;;;;8.14;100.00;98989.19;5053470;28;20234;-79
2022/02/04 15:34:20;;;;;;;8.90;7.00;;;;;;;8.14;100.00;98980.28;5054142;28;20204;-80
2022/02/04 15:36:48;;;;;;;4.20;3.70;;;;;;;8.11;100.00;98978.63;5054296;28;20207;-80
2022/02/04 15:39:18;;;;;;;4.25;3.85;;;;;;;8.11;100.00;98983.97;5053837;28;20235;-81
2022/02/04 15:41:45;;;;;;;5.68;3.97;;;;;;;8.07;100.00;98985.13;5062431;28;20285;-80
2022/02/04 15:44:17;;;;;;;5.40;4.90;;;;;;;7.93;100.00;98982.34;5055264;28;20675;-81
2022/02/04 15:47:12;;;;;;;4.68;3.60;;;;;;;7.96;100.00;98984.00;5071095;28;20185;-80
2022/02/04 15:55:45;;;;;;;7.00;4.72;;;;;;;8.33;100.00;98974.69;5072230;28;20197;-80
2022/02/04 15:58:20;;;;;;;7.53;6.50;;;;;;;8.10;100.00;98963.50;5068580;28;20193;-81
2022/02/04 16:06:26;;;;;;;5.35;3.72;;;;;;;8.32;100.00;98960.44;5057275;28;20293;-80
2022/02/04 16:08:55;;;;;;;4.88;4.03;;;;;;;8.31;100.00;98947.09;5060869;28;20187;-80